createdAt,value
2022-11-27T00:03:03.277Z,36.53
2022-11-27T00:06:08.535Z,46.70
2022-11-27T00:09:16.157Z,36.77
2022-11-27T00:12:19.921Z,62.92
2022-11-27T00:15:24.061Z,41.67
2022-11-27T00:18:29.862Z,56.53
2022-11-27T00:21:36.138Z,52.42
2022-11-27T00:24:40.176Z,50.22
2022-11-27T00:27:44.387Z,54.58
2022-11-27T00:30:48.628Z,70.23
2022-11-27T00:33:55.740Z,56.17
2022-11-27T00:36:59.377Z,43.42
2022-11-27T00:40:03.116Z,42.17
2022-11-27T00:43:06.790Z,24.67
2022-11-27T00:46:10.761Z,24.40
2022-11-27T00:49:16.069Z,77.05
2022-11-27T00:52:20.221Z,56.80
2022-11-27T00:55:23.956Z,28.77
2022-11-27T00:58:28.316Z,24.48
2022-11-27T01:01:38.124Z,38.93
2022-11-27T01:04:42.330Z,59.65
2022-11-27T01:07:46.224Z,63.30
2022-11-27T01:10:54.788Z,60.97
2022-11-27T01:14:02.116Z,50.33
2022-11-27T01:17:05.937Z,64.38
2022-11-27T01:20:09.972Z,74.63
2022-11-27T01:23:14.008Z,72.03
2022-11-27T01:26:19.103Z,46.63
2022-11-27T01:29:23.182Z,65.63
2022-11-27T01:32:27.255Z,58.17
2022-11-27T01:35:33.645Z,57.15
2022-11-27T01:38:37.689Z,52.10
2022-11-27T01:41:41.774Z,67.10
2022-11-27T01:44:51.750Z,59.63
2022-11-27T01:47:59.898Z,38.65
2022-11-27T01:51:03.706Z,32.05
2022-11-27T01:54:09.912Z,30.08
2022-11-27T01:57:21.262Z,31.15
2022-11-27T02:00:26.537Z,40.00
2022-11-27T02:03:29.763Z,32.15
2022-11-27T02:06:33.935Z,36.42
2022-11-27T02:09:37.601Z,97.13
2022-11-27T02:12:56.722Z,127.10
2022-11-27T02:16:07.210Z,87.55
2022-11-27T02:19:32.493Z,47.42
2022-11-27T02:22:45.237Z,24.85
2022-11-27T02:26:04.515Z,21.73
2022-11-27T02:29:13.179Z,30.85
2022-11-27T02:32:52.444Z,36.45
2022-11-27T02:36:04.285Z,33.67
2022-11-27T02:39:17.895Z,41.53
2022-11-27T02:42:22.513Z,42.80
2022-11-27T02:45:35.624Z,33.45
2022-11-27T02:48:45.406Z,28.87
2022-11-27T02:51:55.910Z,57.03
2022-11-27T02:55:04.470Z,36.00
2022-11-27T02:58:13.221Z,31.50
2022-11-27T03:01:20.954Z,32.20
2022-11-27T03:04:35.897Z,25.13
2022-11-27T03:07:48.451Z,21.48
2022-11-27T03:11:15.886Z,19.95
2022-11-27T03:14:21.081Z,25.33
2022-11-27T03:17:53.310Z,16.58
2022-11-27T03:21:10.116Z,24.15
2022-11-27T03:24:14.326Z,24.67
2022-11-27T03:27:27.778Z,21.13
2022-11-27T03:30:30.952Z,26.75
2022-11-27T03:33:34.085Z,21.00
2022-11-27T03:36:38.390Z,20.25
2022-11-27T03:39:42.097Z,18.63
2022-11-27T03:43:09.389Z,14.00
2022-11-27T03:46:31.532Z,20.77
2022-11-27T03:50:11.197Z,22.10
2022-11-27T03:53:47.089Z,31.67
2022-11-27T03:57:08.656Z,14.82
2022-11-27T04:00:12.693Z,18.45
2022-11-27T04:03:22.680Z,21.65
2022-11-27T04:06:26.384Z,19.87
2022-11-27T04:09:29.436Z,23.20
2022-11-27T04:12:33.617Z,10.20
2022-11-27T04:15:36.955Z,14.68
2022-11-27T04:18:39.935Z,11.03
2022-11-27T04:21:42.883Z,21.63
2022-11-27T04:24:45.985Z,15.15
2022-11-27T04:27:49.823Z,18.10
2022-11-27T04:30:55.280Z,28.90
2022-11-27T04:33:59.325Z,17.52
2022-11-27T04:37:02.955Z,25.02
2022-11-27T04:40:07.984Z,34.22
2022-11-27T04:43:11.125Z,35.63
2022-11-27T04:46:14.150Z,18.70
2022-11-27T04:49:17.294Z,17.67
2022-11-27T04:52:21.159Z,23.50
2022-11-27T04:55:24.935Z,20.33
2022-11-27T04:58:29.093Z,19.20
2022-11-27T05:01:32.246Z,17.30
2022-11-27T05:04:35.309Z,18.20
2022-11-27T05:07:39.167Z,13.48
2022-11-27T05:10:42.534Z,16.23
2022-11-27T05:13:45.925Z,17.35
2022-11-27T05:16:52.392Z,11.33
2022-11-27T05:19:55.369Z,12.63
2022-11-27T05:22:59.072Z,16.65
2022-11-27T05:26:03.890Z,17.58
2022-11-27T05:29:08.977Z,18.33
2022-11-27T05:32:12.283Z,17.35
2022-11-27T05:35:15.343Z,11.98
2022-11-27T05:38:18.418Z,17.40
2022-11-27T05:41:22.239Z,12.82
2022-11-27T05:44:27.316Z,9.93
2022-11-27T05:47:30.780Z,18.70
2022-11-27T05:50:33.812Z,16.08
2022-11-27T05:53:37.833Z,11.20
2022-11-27T05:56:41.173Z,17.73
2022-11-27T05:59:44.947Z,20.73
2022-11-27T06:02:49.253Z,17.48
2022-11-27T06:05:53.072Z,66.72
2022-11-27T06:08:56.830Z,73.15
2022-11-27T06:12:00.248Z,21.13
2022-11-27T06:15:04.672Z,23.55
2022-11-27T06:18:08.405Z,22.55
2022-11-27T06:21:14.082Z,30.25
2022-11-27T06:24:18.436Z,24.83
2022-11-27T06:27:22.340Z,27.63
2022-11-27T06:30:26.462Z,26.30
2022-11-27T06:33:30.526Z,26.92
2022-11-27T06:36:38.972Z,22.58
2022-11-27T06:39:41.859Z,26.63
2022-11-27T06:42:45.607Z,19.30
2022-11-27T06:45:57.474Z,27.65
2022-11-27T06:49:02.170Z,22.25
2022-11-27T06:52:06.543Z,109.22
2022-11-27T06:55:10.418Z,27.90
2022-11-27T06:58:14.238Z,32.33
2022-11-27T07:01:18.703Z,23.85
2022-11-27T07:04:21.977Z,23.40
2022-11-27T07:07:25.824Z,23.00
2022-11-27T07:10:29.552Z,14.55
2022-11-27T07:13:33.322Z,18.33
2022-11-27T07:16:37.703Z,16.40
2022-11-27T07:19:40.815Z,15.57
2022-11-27T07:22:44.643Z,21.42
2022-11-27T07:25:48.072Z,25.20
2022-11-27T07:28:52.033Z,24.10
2022-11-27T07:31:55.519Z,31.15
2022-11-27T07:34:58.576Z,25.92
2022-11-27T07:38:01.467Z,26.67
2022-11-27T07:41:06.385Z,29.33
2022-11-27T07:44:11.099Z,36.73
2022-11-27T07:47:14.883Z,39.33
2022-11-27T07:50:17.986Z,36.00
2022-11-27T07:53:21.134Z,70.05
2022-11-27T07:56:24.347Z,32.40
2022-11-27T07:59:27.469Z,32.87
2022-11-27T08:02:31.514Z,32.17
2022-11-27T08:05:36.192Z,24.05
2022-11-27T08:08:39.199Z,24.90
2022-11-27T08:11:42.912Z,18.17
2022-11-27T08:14:46.135Z,26.05
2022-11-27T08:17:49.124Z,28.20
2022-11-27T08:20:52.401Z,28.75
2022-11-27T08:23:55.491Z,33.97
2022-11-27T08:26:58.755Z,35.15
2022-11-27T08:30:01.640Z,43.40
2022-11-27T08:33:05.251Z,41.80
2022-11-27T08:36:13.701Z,45.75
2022-11-27T08:39:21.055Z,60.88
2022-11-27T08:42:24.370Z,40.63
2022-11-27T08:45:27.507Z,35.20
2022-11-27T08:48:30.916Z,37.17
2022-11-27T08:51:33.977Z,38.03
2022-11-27T08:54:37.847Z,40.80
2022-11-27T08:57:42.034Z,39.42
2022-11-27T09:00:45.057Z,39.25
2022-11-27T09:03:49.349Z,40.03
2022-11-27T09:06:57.954Z,34.22
2022-11-27T09:10:01.922Z,35.20
2022-11-27T09:13:05.631Z,33.60
2022-11-27T09:16:12.221Z,34.75
2022-11-27T09:19:16.127Z,32.17
2022-11-27T09:22:19.945Z,34.35
2022-11-27T09:25:22.955Z,35.33
2022-11-27T09:28:31.300Z,30.85
2022-11-27T09:31:35.740Z,39.10
2022-11-27T09:34:39.633Z,37.97
2022-11-27T09:37:43.418Z,37.03
2022-11-27T09:40:53.433Z,27.40
2022-11-27T09:44:03.333Z,32.33
2022-11-27T09:47:20.702Z,34.03
2022-11-27T09:50:29.493Z,37.60
2022-11-27T09:53:59.311Z,32.28
2022-11-27T09:57:04.224Z,34.65
2022-11-27T10:00:14.947Z,31.02
2022-11-27T10:03:24.816Z,32.63
2022-11-27T10:06:55.934Z,32.28
2022-11-27T10:10:01.840Z,29.67
2022-11-27T10:13:49.995Z,26.92
2022-11-27T10:17:16.274Z,32.70
2022-11-27T10:20:56.125Z,29.48
2022-11-27T10:24:11.987Z,34.83
2022-11-27T10:27:28.486Z,58.15
2022-11-27T10:30:36.992Z,57.33
2022-11-27T10:33:48.390Z,67.30
2022-11-27T10:36:56.569Z,98.30
2022-11-27T10:40:14.937Z,45.92
2022-11-27T10:43:24.004Z,57.90
2022-11-27T10:46:34.966Z,40.50
2022-11-27T10:49:42.303Z,41.13
2022-11-27T10:52:55.462Z,52.40
2022-11-27T10:56:16.976Z,65.60
2022-11-27T10:59:33.043Z,83.40
2022-11-27T11:02:40.336Z,109.20
2022-11-27T11:06:19.125Z,118.43
2022-11-27T11:09:30.949Z,120.63
2022-11-27T11:12:35.204Z,110.13
2022-11-27T11:16:35.229Z,128.88
2022-11-27T11:19:40.253Z,110.63
2022-11-27T11:22:48.018Z,110.80
2022-11-27T11:25:55.886Z,111.75
2022-11-27T11:29:03.547Z,119.43
2022-11-27T11:32:14.580Z,119.50
2022-11-27T11:35:36.746Z,141.75
2022-11-27T11:38:45.580Z,142.43
2022-11-27T11:41:49.382Z,136.17
2022-11-27T11:44:56.203Z,134.38
2022-11-27T11:48:03.304Z,137.98
2022-11-27T11:51:15.684Z,130.43
2022-11-27T11:54:22.293Z,143.07
2022-11-27T11:57:32.771Z,154.30
2022-11-27T12:01:19.367Z,137.52
2022-11-27T12:04:18.683Z,120.40
2022-11-27T12:07:51.987Z,112.90
2022-11-27T12:11:06.694Z,133.93
2022-11-27T12:14:17.704Z,139.20
2022-11-27T12:17:49.187Z,107.30
2022-11-27T12:21:41.689Z,122.10
2022-11-27T12:25:11.964Z,140.93
2022-11-27T12:28:15.934Z,153.90
2022-11-27T12:31:34.490Z,248.02
2022-11-27T12:34:51.944Z,362.02
2022-11-27T12:38:17.801Z,405.73
2022-11-27T12:41:59.540Z,316.63
2022-11-27T12:45:18.085Z,186.07
2022-11-27T12:48:37.441Z,181.77
2022-11-27T12:51:55.786Z,144.63
2022-11-27T12:55:13.260Z,112.18
2022-11-27T12:58:28.969Z,169.75
2022-11-27T13:01:40.577Z,161.77
2022-11-27T13:04:52.613Z,190.40
2022-11-27T13:08:03.502Z,168.73
2022-11-27T13:11:11.427Z,123.95
2022-11-27T13:14:22.495Z,121.43
2022-11-27T13:17:35.314Z,149.73
2022-11-27T13:20:40.993Z,136.30
2022-11-27T13:23:44.947Z,127.30
2022-11-27T13:27:07.080Z,130.05
2022-11-27T13:30:29.062Z,156.27
2022-11-27T13:33:44.635Z,130.77
2022-11-27T13:36:56.723Z,160.97
2022-11-27T13:40:15.823Z,157.70
2022-11-27T13:43:29.819Z,125.55
2022-11-27T13:46:47.214Z,108.53
2022-11-27T13:50:31.022Z,94.25
2022-11-27T13:53:38.302Z,126.50
2022-11-27T13:56:41.846Z,81.28
2022-11-27T14:00:05.491Z,130.95
2022-11-27T14:03:29.609Z,97.18
2022-11-27T14:06:33.886Z,79.50
2022-11-27T14:09:50.755Z,91.63
2022-11-27T14:13:12.575Z,94.28
2022-11-27T14:16:27.471Z,87.80
2022-11-27T14:19:35.163Z,63.90
2022-11-27T14:23:07.525Z,140.57
2022-11-27T14:26:21.469Z,83.70
2022-11-27T14:29:26.394Z,124.93
2022-11-27T14:32:36.685Z,155.30
2022-11-27T14:35:42.111Z,124.20
2022-11-27T14:38:49.982Z,125.40
2022-11-27T14:42:06.120Z,102.80
2022-11-27T14:45:16.303Z,89.93
2022-11-27T14:48:25.728Z,118.57
2022-11-27T14:51:33.710Z,95.47
2022-11-27T14:54:39.907Z,110.55
2022-11-27T14:57:45.898Z,112.50
2022-11-27T15:01:04.367Z,107.80
2022-11-27T15:04:34.595Z,162.32
2022-11-27T15:07:45.338Z,112.35
2022-11-27T15:10:55.591Z,78.82
2022-11-27T15:14:02.536Z,142.67
2022-11-27T15:17:07.224Z,101.90
2022-11-27T15:20:39.323Z,153.10
2022-11-27T15:23:47.201Z,44.70
2022-11-27T15:26:50.476Z,141.57
2022-11-27T15:29:54.392Z,78.38
2022-11-27T15:32:58.715Z,52.00
2022-11-27T15:36:22.116Z,55.38
2022-11-27T15:39:28.029Z,59.13
2022-11-27T15:42:32.036Z,39.63
2022-11-27T15:45:39.821Z,32.23
2022-11-27T15:48:43.897Z,38.67
2022-11-27T15:51:47.665Z,39.05
2022-11-27T15:54:52.783Z,44.83
2022-11-27T15:57:56.494Z,43.78
2022-11-27T16:01:00.750Z,42.40
2022-11-27T16:04:04.701Z,77.65
2022-11-27T16:07:08.892Z,94.20
2022-11-27T16:10:12.828Z,69.75
2022-11-27T16:13:17.023Z,77.10
2022-11-27T16:16:21.422Z,76.40
2022-11-27T16:19:26.207Z,96.97
2022-11-27T16:22:30.193Z,82.03
2022-11-27T16:25:34.032Z,110.77
2022-11-27T16:28:37.175Z,108.97
2022-11-27T16:31:41.696Z,103.13
2022-11-27T16:34:45.940Z,125.28
2022-11-27T16:37:50.019Z,161.60
2022-11-27T16:41:01.690Z,105.88
2022-11-27T16:44:13.533Z,84.15
2022-11-27T16:47:18.727Z,86.43
2022-11-27T16:50:23.522Z,83.68
2022-11-27T16:53:26.528Z,75.43
2022-11-27T16:56:31.749Z,34.50
2022-11-27T16:59:38.454Z,50.45
2022-11-27T17:02:42.805Z,105.88
2022-11-27T17:05:51.282Z,71.63
2022-11-27T17:08:55.780Z,110.53
2022-11-27T17:11:59.890Z,70.20
2022-11-27T17:15:04.197Z,16.48
2022-11-27T17:18:08.935Z,21.17
2022-11-27T17:21:28.157Z,17.00
2022-11-27T17:24:33.061Z,18.90
2022-11-27T17:27:36.895Z,16.70
2022-11-27T17:30:41.165Z,34.90
2022-11-27T17:33:46.288Z,157.77
2022-11-27T17:36:54.656Z,177.85
2022-11-27T17:39:59.565Z,364.10
2022-11-27T17:43:03.869Z,262.83
2022-11-27T17:46:33.407Z,273.00
2022-11-27T17:49:38.732Z,259.90
2022-11-27T17:52:42.582Z,284.27
2022-11-27T17:55:47.344Z,186.77
2022-11-27T17:58:51.316Z,323.67
2022-11-27T18:01:55.631Z,216.80
2022-11-27T18:04:59.255Z,274.80
2022-11-27T18:08:03.306Z,206.05
2022-11-27T18:11:21.285Z,188.10
2022-11-27T18:14:24.426Z,270.75
2022-11-27T18:17:29.395Z,339.52
2022-11-27T18:20:32.424Z,239.73
2022-11-27T18:23:36.747Z,164.80
2022-11-27T18:27:06.447Z,190.63
2022-11-27T18:30:05.551Z,191.63
2022-11-27T18:33:08.594Z,149.60
2022-11-27T18:36:13.481Z,159.95
2022-11-27T18:39:16.520Z,176.35
2022-11-27T18:42:21.950Z,101.35
2022-11-27T18:45:33.678Z,80.70
2022-11-27T18:48:39.760Z,112.72
2022-11-27T18:51:45.496Z,136.97
2022-11-27T18:54:48.972Z,144.70
2022-11-27T18:57:53.861Z,91.45
2022-11-27T19:00:58.419Z,105.00
2022-11-27T19:04:03.218Z,97.90
2022-11-27T19:07:06.986Z,54.28
2022-11-27T19:10:11.265Z,34.88
2022-11-27T19:13:15.521Z,46.13
2022-11-27T19:16:31.654Z,22.75
2022-11-27T19:23:00.844Z,31.13
2022-11-27T19:26:07.283Z,25.30
2022-11-27T19:29:10.705Z,20.67
2022-11-27T19:32:14.809Z,38.30
2022-11-27T19:35:22.596Z,47.05
2022-11-27T19:38:26.201Z,26.50
2022-11-27T19:41:31.505Z,15.10
2022-11-27T19:44:39.113Z,31.27
2022-11-27T19:47:42.337Z,32.80
2022-11-27T19:50:46.745Z,27.25
2022-11-27T19:53:51.065Z,35.90
2022-11-27T19:56:55.324Z,25.30
2022-11-27T19:59:59.409Z,31.92
2022-11-27T20:03:03.043Z,25.87
2022-11-27T20:06:14.730Z,27.52
2022-11-27T20:09:18.738Z,30.73
2022-11-27T20:12:22.145Z,27.60
2022-11-27T20:15:25.801Z,26.88
2022-11-27T20:18:29.489Z,39.78
2022-11-27T20:21:32.555Z,29.33
2022-11-27T20:24:47.992Z,14.03
2022-11-27T20:28:00.833Z,23.75
2022-11-27T20:31:05.429Z,19.48
2022-11-27T20:34:10.177Z,17.83
2022-11-27T20:37:13.945Z,26.30
2022-11-27T20:40:21.199Z,25.67
2022-11-27T20:43:24.687Z,22.80
2022-11-27T20:46:29.110Z,20.55
2022-11-27T20:49:34.397Z,26.92
2022-11-27T20:52:37.750Z,20.58
2022-11-27T20:55:40.739Z,32.00
2022-11-27T20:58:46.659Z,23.52
2022-11-27T21:01:50.300Z,17.60
2022-11-27T21:04:57.566Z,20.93
2022-11-27T21:08:01.244Z,23.92
2022-11-27T21:11:18.074Z,13.65
2022-11-27T21:14:22.062Z,23.98
2022-11-27T21:17:26.519Z,37.13
2022-11-27T21:20:31.850Z,15.88
2022-11-27T21:23:36.335Z,23.10
2022-11-27T21:26:40.980Z,17.50
2022-11-27T21:29:44.683Z,17.15
2022-11-27T21:32:51.030Z,12.70
2022-11-27T21:35:58.098Z,11.93
2022-11-27T21:39:03.366Z,11.52
2022-11-27T21:42:07.917Z,13.35
2022-11-27T21:45:11.796Z,13.45
2022-11-27T21:48:18.248Z,27.65
2022-11-27T21:51:24.313Z,24.77
2022-11-27T21:54:27.765Z,22.17
2022-11-27T21:57:32.659Z,15.50
2022-11-27T22:00:38.445Z,10.77
2022-11-27T22:03:42.908Z,17.63
2022-11-27T22:06:47.099Z,10.70
2022-11-27T22:09:50.851Z,21.55
2022-11-27T22:12:54.894Z,16.38
2022-11-27T22:15:58.708Z,16.35
2022-11-27T22:19:03.556Z,16.97
2022-11-27T22:22:07.684Z,18.15
2022-11-27T22:25:11.826Z,14.70
2022-11-27T22:28:15.868Z,23.53
2022-11-27T22:31:30.403Z,25.60
2022-11-27T22:34:34.766Z,10.80
2022-11-27T22:37:39.335Z,24.25
2022-11-27T22:40:44.022Z,11.45
2022-11-27T22:43:48.344Z,20.80
2022-11-27T22:46:51.844Z,22.83
2022-11-27T22:49:55.562Z,60.13
2022-11-27T22:52:59.743Z,15.65
2022-11-27T22:56:13.480Z,7.97
2022-11-27T22:59:32.186Z,11.07
2022-11-27T23:02:39.455Z,15.90
2022-11-27T23:05:46.514Z,15.07
2022-11-27T23:08:51.591Z,13.90
2022-11-27T23:11:57.216Z,12.50
2022-11-27T23:15:01.646Z,14.40
2022-11-27T23:18:05.860Z,11.75
2022-11-27T23:21:15.053Z,8.13
2022-11-27T23:24:19.811Z,7.65
2022-11-27T23:27:23.079Z,10.80
2022-11-27T23:30:26.531Z,7.67
2022-11-27T23:33:29.522Z,8.60
2022-11-27T23:36:33.829Z,7.03
2022-11-27T23:39:36.966Z,10.60
2022-11-27T23:42:40.756Z,5.30
2022-11-27T23:45:44.829Z,5.50
2022-11-27T23:48:49.019Z,7.63
2022-11-27T23:51:52.009Z,9.93
2022-11-27T23:54:55.709Z,7.40
2022-11-27T23:57:59.871Z,13.75
